Terminal Aerodrome Forecast
Issued by NWS

Home | Current Version | Previous Version | Graphics & Text | Print | Product List | Glossary On
Versions: 1 2 3 4 5 6 7 8 9 10 11 12 13 14 15 16 17 18 19 20 21 22 23 24 25
000
FTUS43 KBIS 211121
TAFJMS
TAF
KJMS 211121Z 2112/2212 VRB05KT 1/4SM FG OVC002
     FM211400 VRB05KT 1SM BR SCT025
     FM211500 VRB05KT 2SM BR SCT030
     FM211600 VRB05KT P6SM SCT040
     FM221100 23005KT P6SM FEW150=

USA.gov is the U.S. government's official web portal to all federal, state and local government web resources and services.